Time;durP1;ratioP1;P1;durP2;ratioP2;P2;SDS_P1;SDS_P2;PMS_P1;PMS_P2;Temp;Humidity;BMP_temperature;BMP_pressure;BME280_temperature;BME280_humidity;BME280_pressure;Samples;Min_cycle;Max_cycle;Signal;HPM_P1;HPM_P2
2021/11/29 00:00:37;;;;;;;22.33;11.15;;;4.00;99.90;;;;;;5040876;28;20323;-77
2021/11/29 00:03:07;;;;;;;15.85;9.70;;;3.70;99.90;;;;;;5048752;28;20037;-79
2021/11/29 00:05:33;;;;;;;19.63;10.18;;;3.70;99.90;;;;;;5046510;28;20036;-82
2021/11/29 00:08:01;;;;;;;19.70;9.95;;;4.20;99.90;;;;;;5048056;28;20029;-81
2021/11/29 00:10:28;;;;;;;19.13;9.55;;;3.90;99.90;;;;;;5042051;28;20026;-81
2021/11/29 00:12:55;;;;;;;17.98;9.75;;;3.80;99.90;;;;;;5044085;28;20075;-81
2021/11/29 00:15:21;;;;;;;19.90;10.32;;;3.70;99.90;;;;;;5063340;28;20025;-81
2021/11/29 00:17:46;;;;;;;20.33;10.35;;;3.70;99.90;;;;;;5041903;28;20553;-81
2021/11/29 00:20:13;;;;;;;22.13;10.00;;;3.80;99.90;;;;;;5053000;28;20090;-77
2021/11/29 00:22:40;;;;;;;17.52;10.00;;;3.80;99.90;;;;;;5046421;28;20025;-81
2021/11/29 00:25:07;;;;;;;20.35;10.10;;;4.50;99.90;;;;;;5041447;28;20480;-77
2021/11/29 00:27:33;;;;;;;22.45;11.43;;;3.80;99.90;;;;;;5042882;28;20036;-82
2021/11/29 00:29:59;;;;;;;21.60;10.48;;;4.80;99.90;;;;;;5054990;28;20025;-79
2021/11/29 00:32:25;;;;;;;20.38;10.75;;;3.80;99.90;;;;;;5046926;28;20075;-81
2021/11/29 00:34:51;;;;;;;21.77;10.93;;;3.80;99.90;;;;;;5048214;28;20063;-82
2021/11/29 00:37:17;;;;;;;24.60;11.57;;;4.00;99.90;;;;;;5045196;28;20029;-79
2021/11/29 00:39:43;;;;;;;21.42;10.80;;;3.90;99.90;;;;;;5047087;28;20037;-80
2021/11/29 00:42:09;;;;;;;21.95;10.73;;;3.70;99.90;;;;;;5035261;28;20047;-82
2021/11/29 00:44:34;;;;;;;21.58;10.07;;;3.70;99.90;;;;;;5043786;28;20025;-83
2021/11/29 00:47:00;;;;;;;20.85;10.95;;;3.80;99.90;;;;;;5047512;28;20036;-82
2021/11/29 00:49:26;;;;;;;22.73;11.45;;;4.60;99.90;;;;;;5049994;28;20021;-82
2021/11/29 00:51:52;;;;;;;19.98;10.52;;;4.60;99.90;;;;;;5048115;28;20028;-82
2021/11/29 00:54:18;;;;;;;21.75;11.10;;;3.70;99.90;;;;;;5047312;28;20020;-80
2021/11/29 00:56:43;;;;;;;18.83;10.15;;;3.90;99.90;;;;;;5047818;28;20059;-81
2021/11/29 00:59:09;;;;;;;19.30;10.68;;;3.80;99.90;;;;;;5046183;28;20673;-81
2021/11/29 01:01:36;;;;;;;20.45;10.05;;;4.50;99.90;;;;;;5044745;28;20913;-80
2021/11/29 01:04:03;;;;;;;22.90;10.77;;;3.90;99.90;;;;;;5043545;28;20033;-82
2021/11/29 01:06:29;;;;;;;22.17;11.50;;;4.00;99.90;;;;;;5048708;28;20029;-79
2021/11/29 01:08:55;;;;;;;20.95;11.27;;;3.90;99.90;;;;;;5047943;28;20650;-81
2021/11/29 01:11:20;;;;;;;23.10;10.98;;;3.90;99.90;;;;;;5046417;28;20025;-81
2021/11/29 01:13:46;;;;;;;21.30;11.07;;;3.90;99.90;;;;;;5049360;28;21442;-79
2021/11/29 01:16:13;;;;;;;20.45;10.90;;;3.90;99.90;;;;;;5046943;28;20619;-81
2021/11/29 01:18:39;;;;;;;22.45;11.27;;;4.00;99.90;;;;;;5053791;28;20090;-84
2021/11/29 01:21:05;;;;;;;21.52;10.75;;;3.80;99.90;;;;;;5051293;28;20065;-80
2021/11/29 01:23:31;;;;;;;21.23;10.75;;;3.80;99.90;;;;;;5052271;28;20036;-85
2021/11/29 01:25:58;;;;;;;22.50;11.35;;;3.80;99.90;;;;;;5048831;28;20040;-78
2021/11/29 01:28:24;;;;;;;23.85;11.88;;;3.80;99.90;;;;;;5056528;28;20036;-83
2021/11/29 01:30:50;;;;;;;22.67;11.43;;;3.70;99.90;;;;;;5064882;28;20035;-78
2021/11/29 01:33:17;;;;;;;23.15;10.95;;;4.40;99.90;;;;;;5072184;28;20037;-78
2021/11/29 01:35:42;;;;;;;19.85;11.10;;;3.80;99.90;;;;;;5069346;28;20071;-86
2021/11/29 01:38:08;;;;;;;20.92;11.40;;;3.70;99.90;;;;;;5053477;28;20454;-81
2021/11/29 01:40:35;;;;;;;21.83;11.02;;;3.70;99.90;;;;;;5050400;28;20032;-83
2021/11/29 01:43:05;;;;;;;21.35;10.93;;;3.10;99.90;;;;;;5048238;28;20139;-81
2021/11/29 01:45:34;;;;;;;20.90;10.90;;;3.70;99.90;;;;;;5066634;28;20446;-79
2021/11/29 01:48:00;;;;;;;20.02;10.27;;;3.70;99.90;;;;;;5051565;28;20083;-81
2021/11/29 01:50:26;;;;;;;18.10;9.57;;;3.90;99.90;;;;;;5045122;28;20029;-81
2021/11/29 01:52:53;;;;;;;21.05;9.98;;;3.70;99.90;;;;;;5065386;28;20116;-81
2021/11/29 01:55:19;;;;;;;18.90;10.48;;;3.70;99.90;;;;;;5048362;28;20028;-81
2021/11/29 01:57:46;;;;;;;21.05;11.00;;;3.70;99.90;;;;;;5045640;28;20029;-81
2021/11/29 02:00:17;;;;;;;17.45;9.80;;;3.60;99.90;;;;;;5049039;28;20560;-79
2021/11/29 02:02:48;;;;;;;19.05;9.68;;;2.30;99.90;;;;;;5048675;28;20029;-80
2021/11/29 02:05:14;;;;;;;18.50;9.95;;;3.60;99.90;;;;;;5047610;28;20036;-80
2021/11/29 02:07:41;;;;;;;15.02;8.68;;;4.80;99.90;;;;;;5051034;28;20378;-84
2021/11/29 02:10:08;;;;;;;17.88;9.93;;;3.60;99.90;;;;;;5051704;28;20067;-85
2021/11/29 02:12:34;;;;;;;18.45;9.40;;;3.40;99.90;;;;;;5049348;28;20036;-81
2021/11/29 02:15:00;;;;;;;18.48;9.05;;;3.60;99.90;;;;;;5046053;28;20025;-81
2021/11/29 02:17:26;;;;;;;17.33;8.52;;;3.60;99.90;;;;;;5045325;28;20029;-84
2021/11/29 02:19:52;;;;;;;17.20;8.73;;;3.70;99.90;;;;;;5047299;28;20033;-81
2021/11/29 02:22:18;;;;;;;17.25;8.80;;;4.70;99.90;;;;;;5042254;28;20033;-83
2021/11/29 02:24:44;;;;;;;14.82;8.20;;;4.00;99.90;;;;;;5048170;28;20116;-83
2021/11/29 02:27:10;;;;;;;15.55;8.55;;;3.60;99.90;;;;;;5048597;28;20033;-83
2021/11/29 02:29:37;;;;;;;15.98;8.73;;;3.50;99.90;;;;;;5046220;28;20033;-83
2021/11/29 02:32:03;;;;;;;16.05;8.40;;;3.40;99.90;;;;;;5064296;28;20033;-81
2021/11/29 02:34:31;;;;;;;14.30;6.68;;;3.40;99.90;;;;;;5043280;28;20068;-81
2021/11/29 02:36:59;;;;;;;13.55;7.05;;;3.40;99.90;;;;;;5046563;28;20111;-79
2021/11/29 02:39:28;;;;;;;12.50;6.70;;;3.40;99.90;;;;;;5051509;28;20117;-79
2021/11/29 02:41:56;;;;;;;13.20;6.90;;;3.50;99.90;;;;;;5046359;28;20489;-81
2021/11/29 02:44:22;;;;;;;11.07;6.20;;;3.30;99.90;;;;;;5049208;28;20044;-80
2021/11/29 02:46:48;;;;;;;13.07;6.93;;;3.30;99.90;;;;;;5048390;28;20059;-83
2021/11/29 02:49:15;;;;;;;12.35;6.03;;;4.60;99.90;;;;;;5045426;28;20740;-82
2021/11/29 02:51:52;;;;;;;14.73;7.00;;;3.30;99.90;;;;;;5059194;28;20025;-81
2021/11/29 02:54:24;;;;;;;14.25;6.70;;;3.30;99.90;;;;;;5046101;28;20493;-81
2021/11/29 02:56:55;;;;;;;13.45;6.65;;;5.00;99.90;;;;;;5046723;28;20032;-81
2021/11/29 02:59:23;;;;;;;16.58;7.60;;;3.20;99.90;;;;;;5045081;28;20033;-87
2021/11/29 03:01:52;;;;;;;12.93;6.00;;;3.20;99.90;;;;;;5047558;28;20371;-81
2021/11/29 03:04:23;;;;;;;12.85;6.10;;;3.10;99.90;;;;;;5051409;28;20033;-81
2021/11/29 03:06:49;;;;;;;12.20;5.83;;;4.20;99.90;;;;;;5043979;28;20036;-83
2021/11/29 03:09:15;;;;;;;12.52;6.05;;;4.00;99.90;;;;;;5045906;28;20283;-81
2021/11/29 03:11:41;;;;;;;10.05;5.47;;;1.70;99.90;;;;;;5047185;28;20025;-83
2021/11/29 03:14:08;;;;;;;11.27;4.63;;;3.40;99.90;;;;;;5048000;28;20032;-81
2021/11/29 03:16:37;;;;;;;9.43;4.65;;;3.20;99.90;;;;;;5037143;28;20072;-82
2021/11/29 03:19:03;;;;;;;8.88;5.13;;;3.10;99.90;;;;;;5047078;28;20025;-80
2021/11/29 03:21:29;;;;;;;10.32;4.93;;;2.90;99.90;;;;;;5049871;28;20096;-81
2021/11/29 03:23:59;;;;;;;8.40;4.63;;;4.30;99.90;;;;;;5049842;28;20558;-81
2021/11/29 03:26:26;;;;;;;7.97;4.25;;;2.70;99.90;;;;;;5047265;28;20031;-83
2021/11/29 03:28:56;;;;;;;7.72;4.15;;;3.00;99.90;;;;;;5045238;28;20033;-82
2021/11/29 03:31:27;;;;;;;8.73;4.63;;;2.70;99.90;;;;;;5044876;28;20115;-84
2021/11/29 03:33:57;;;;;;;9.43;4.80;;;2.60;99.90;;;;;;5045026;28;20443;-83
2021/11/29 03:36:30;;;;;;;11.95;5.13;;;2.60;99.90;;;;;;5042031;28;20076;-83
2021/11/29 03:38:57;;;;;;;9.68;4.65;;;3.80;99.90;;;;;;5048491;28;20025;-83
2021/11/29 03:41:23;;;;;;;8.98;4.60;;;2.60;99.90;;;;;;5048419;28;20033;-85
2021/11/29 03:43:49;;;;;;;10.30;4.50;;;2.50;99.90;;;;;;5053310;28;20025;-81
2021/11/29 03:46:15;;;;;;;8.70;4.15;;;2.50;99.90;;;;;;5050955;28;20028;-83
2021/11/29 03:48:41;;;;;;;8.18;4.60;;;2.50;99.90;;;;;;5050430;28;20071;-84
2021/11/29 03:51:07;;;;;;;9.75;4.05;;;3.40;99.90;;;;;;5054383;28;20025;-81
2021/11/29 03:53:33;;;;;;;9.75;4.35;;;2.40;99.90;;;;;;5050159;28;20342;-80
2021/11/29 03:55:59;;;;;;;8.90;4.22;;;2.40;99.90;;;;;;5052904;28;20029;-81
2021/11/29 03:58:26;;;;;;;12.32;4.70;;;2.50;99.90;;;;;;5053538;28;20029;-85
2021/11/29 04:00:54;;;;;;;6.57;3.78;;;2.50;99.90;;;;;;5055798;28;20033;-85
2021/11/29 04:03:20;;;;;;;8.13;4.40;;;2.40;99.90;;;;;;5050370;28;20493;-83
2021/11/29 04:05:46;;;;;;;10.18;4.47;;;2.40;99.90;;;;;;5052392;28;20029;-81
2021/11/29 04:08:12;;;;;;;9.60;4.32;;;2.40;99.90;;;;;;5052762;28;20032;-81
2021/11/29 04:10:38;;;;;;;8.75;4.10;;;2.40;99.90;;;;;;5053411;28;20021;-81
2021/11/29 04:13:04;;;;;;;12.48;4.82;;;2.40;99.90;;;;;;5052231;28;20028;-80
2021/11/29 04:15:30;;;;;;;9.25;4.18;;;2.50;99.90;;;;;;5049607;28;20592;-80
2021/11/29 04:17:56;;;;;;;8.30;4.30;;;2.40;99.90;;;;;;5048253;28;20075;-80
2021/11/29 04:20:23;;;;;;;7.80;4.43;;;2.40;99.90;;;;;;5055804;28;20557;-83
2021/11/29 04:22:49;;;;;;;8.82;4.07;;;2.40;99.90;;;;;;5045031;28;20025;-82
2021/11/29 04:25:18;;;;;;;15.45;4.85;;;2.50;99.90;;;;;;5051935;28;20029;-82
2021/11/29 04:27:46;;;;;;;9.70;4.95;;;2.40;99.90;;;;;;5052658;28;20065;-83
2021/11/29 04:30:17;;;;;;;9.50;4.43;;;2.30;99.90;;;;;;5048736;28;20026;-83
2021/11/29 04:32:47;;;;;;;12.10;4.90;;;2.30;99.90;;;;;;5050919;28;20128;-84
2021/11/29 04:35:14;;;;;;;13.05;5.50;;;2.30;99.90;;;;;;5049515;28;20029;-83
2021/11/29 04:37:40;;;;;;;11.23;6.25;;;2.20;99.90;;;;;;5063185;28;20032;-83
2021/11/29 04:40:07;;;;;;;12.95;5.45;;;2.20;99.90;;;;;;5056850;28;20105;-82
2021/11/29 04:42:33;;;;;;;9.70;5.47;;;2.10;99.90;;;;;;5069538;28;20159;-84
2021/11/29 04:44:59;;;;;;;9.77;4.95;;;2.10;99.90;;;;;;5050300;28;20127;-84
2021/11/29 04:47:25;;;;;;;11.20;5.40;;;2.10;99.90;;;;;;5050466;28;20247;-82
2021/11/29 04:49:50;;;;;;;12.27;5.70;;;2.10;99.90;;;;;;5049055;28;20037;-82
2021/11/29 04:52:16;;;;;;;15.10;5.68;;;2.10;99.90;;;;;;5059184;28;20476;-84
2021/11/29 04:54:42;;;;;;;10.05;5.63;;;2.10;99.90;;;;;;5056563;28;20436;-81
2021/11/29 04:57:08;;;;;;;11.73;5.18;;;2.10;99.90;;;;;;5046438;28;20041;-81
2021/11/29 04:59:34;;;;;;;13.30;5.93;;;2.10;99.90;;;;;;5054724;28;20097;-83
2021/11/29 05:02:01;;;;;;;11.93;5.47;;;2.30;99.90;;;;;;5051689;28;20037;-86
2021/11/29 05:04:28;;;;;;;18.65;6.80;;;2.00;99.90;;;;;;5052494;28;20035;-82
2021/11/29 05:06:54;;;;;;;12.02;6.30;;;2.40;99.90;;;;;;5054170;28;20507;-82
2021/11/29 05:09:19;;;;;;;13.38;6.38;;;2.20;99.90;;;;;;5052226;28;20033;-82
2021/11/29 05:11:45;;;;;;;11.82;6.13;;;2.10;99.90;;;;;;5051751;28;20025;-82
2021/11/29 05:14:11;;;;;;;15.07;6.15;;;2.10;99.90;;;;;;5050037;28;20443;-83
2021/11/29 05:16:38;;;;;;;13.45;5.13;;;2.00;99.90;;;;;;5050323;28;20465;-81
2021/11/29 05:19:04;;;;;;;13.55;5.65;;;2.00;99.90;;;;;;5057405;28;20064;-81
2021/11/29 05:21:30;;;;;;;18.25;7.25;;;2.50;99.90;;;;;;5050784;28;20057;-81
2021/11/29 05:23:56;;;;;;;11.90;6.13;;;2.00;99.90;;;;;;5050803;28;20115;-79
2021/11/29 05:26:24;;;;;;;10.68;5.80;;;3.00;99.90;;;;;;5049887;28;20393;-81
2021/11/29 05:28:52;;;;;;;9.48;5.53;;;2.20;99.90;;;;;;5055014;28;20116;-83
2021/11/29 05:31:19;;;;;;;10.75;5.85;;;1.90;99.90;;;;;;5047515;28;20725;-79
2021/11/29 05:33:45;;;;;;;12.85;6.25;;;1.80;99.90;;;;;;5050113;28;20021;-84
2021/11/29 05:36:10;;;;;;;13.70;5.70;;;1.80;99.90;;;;;;5053090;28;20025;-81
2021/11/29 05:38:36;;;;;;;13.20;6.10;;;2.80;99.90;;;;;;5054230;28;20064;-83
2021/11/29 05:41:02;;;;;;;16.95;7.80;;;1.70;99.90;;;;;;5047132;28;20025;-81
2021/11/29 05:43:28;;;;;;;15.45;7.28;;;1.70;99.90;;;;;;5048481;28;20427;-85
2021/11/29 05:45:54;;;;;;;15.40;7.20;;;1.80;99.90;;;;;;5048428;28;20035;-83
2021/11/29 05:48:24;;;;;;;13.68;6.95;;;1.80;99.90;;;;;;5054927;28;20375;-85
2021/11/29 05:50:50;;;;;;;13.88;6.78;;;1.80;99.90;;;;;;5053453;28;20124;-81
2021/11/29 05:53:16;;;;;;;16.75;7.68;;;2.00;99.90;;;;;;5053353;28;20052;-82
2021/11/29 05:55:41;;;;;;;12.40;7.85;;;1.90;99.90;;;;;;5052741;28;20029;-82
2021/11/29 05:58:07;;;;;;;15.13;7.75;;;1.90;99.90;;;;;;5053668;28;20032;-82
2021/11/29 06:00:33;;;;;;;15.98;7.70;;;1.90;99.90;;;;;;5052833;28;20393;-81
2021/11/29 06:02:59;;;;;;;12.98;7.10;;;2.10;99.90;;;;;;5055616;28;20036;-81
2021/11/29 06:05:25;;;;;;;14.52;7.95;;;2.60;99.90;;;;;;5050273;28;20029;-81
2021/11/29 06:07:52;;;;;;;13.90;7.00;;;1.90;99.90;;;;;;5047466;28;20021;-83
2021/11/29 06:10:18;;;;;;;14.45;7.22;;;1.80;99.90;;;;;;5051505;28;20076;-82
2021/11/29 06:12:45;;;;;;;15.82;7.07;;;2.10;99.90;;;;;;5049363;28;20033;-81
2021/11/29 06:15:12;;;;;;;16.88;7.18;;;2.00;99.90;;;;;;5038979;28;20518;-81
2021/11/29 06:17:38;;;;;;;17.45;7.22;;;2.10;99.90;;;;;;5046441;28;20496;-83
2021/11/29 06:20:05;;;;;;;15.38;7.03;;;2.00;99.90;;;;;;5052541;28;20028;-82
2021/11/29 06:22:32;;;;;;;18.60;7.85;;;2.10;99.90;;;;;;5048755;28;20028;-88
2021/11/29 06:24:57;;;;;;;15.15;7.72;;;2.00;99.90;;;;;;5048134;28;20066;-81
2021/11/29 06:27:25;;;;;;;13.35;7.00;;;2.10;99.90;;;;;;5050541;28;20049;-81
2021/11/29 06:29:51;;;;;;;16.42;7.93;;;2.10;99.90;;;;;;5051076;28;20064;-81
2021/11/29 06:32:17;;;;;;;16.30;7.80;;;2.10;99.90;;;;;;5051787;28;20492;-81
2021/11/29 06:34:43;;;;;;;15.77;7.90;;;2.10;99.90;;;;;;5050972;28;20029;-81
2021/11/29 06:37:10;;;;;;;24.05;8.77;;;2.10;99.90;;;;;;5050673;28;20033;-82
2021/11/29 06:39:37;;;;;;;14.50;7.85;;;2.10;99.90;;;;;;5046540;28;20552;-84
2021/11/29 06:42:05;;;;;;;16.13;8.60;;;2.20;99.90;;;;;;5048552;28;20049;-81
2021/11/29 06:44:31;;;;;;;18.75;8.82;;;2.10;99.90;;;;;;5048473;28;20041;-80
2021/11/29 06:46:57;;;;;;;17.48;9.00;;;2.10;99.90;;;;;;5050051;28;20177;-82
2021/11/29 06:49:23;;;;;;;22.25;9.48;;;2.10;99.90;;;;;;5049316;28;20413;-81
2021/11/29 06:51:49;;;;;;;16.88;9.48;;;2.10;99.90;;;;;;5046584;28;20086;-82
2021/11/29 06:54:15;;;;;;;20.50;9.32;;;2.40;99.90;;;;;;5046910;28;20142;-82
2021/11/29 06:56:41;;;;;;;18.20;9.30;;;2.20;99.90;;;;;;5049529;28;20024;-82
2021/11/29 06:59:08;;;;;;;17.15;9.23;;;2.10;99.90;;;;;;5046081;28;20508;-84
2021/11/29 07:01:34;;;;;;;21.17;9.45;;;2.10;99.90;;;;;;5047951;28;20075;-81
2021/11/29 07:04:00;;;;;;;20.17;9.32;;;2.10;99.90;;;;;;5052349;28;20032;-82
2021/11/29 07:06:26;;;;;;;16.48;8.55;;;2.10;99.90;;;;;;5054629;28;20043;-84
2021/11/29 07:08:52;;;;;;;16.92;8.48;;;2.10;99.90;;;;;;5054402;28;20025;-82
2021/11/29 07:11:17;;;;;;;20.35;9.43;;;2.10;99.90;;;;;;5054761;28;20021;-85
2021/11/29 07:13:43;;;;;;;14.63;8.60;;;2.10;99.90;;;;;;5050419;28;20064;-81
2021/11/29 07:16:09;;;;;;;16.88;8.98;;;2.10;99.90;;;;;;5054913;28;20032;-81
2021/11/29 07:18:35;;;;;;;20.77;9.30;;;2.10;99.90;;;;;;5054207;28;20032;-82
2021/11/29 07:21:01;;;;;;;20.00;9.43;;;2.20;99.90;;;;;;5054354;28;20116;-80
2021/11/29 07:23:26;;;;;;;20.75;8.95;;;2.30;99.90;;;;;;5053230;28;20110;-83
2021/11/29 07:25:52;;;;;;;18.90;9.20;;;2.20;99.90;;;;;;5047426;28;20028;-85
2021/11/29 07:28:18;;;;;;;18.02;9.30;;;2.20;99.90;;;;;;5049408;28;20029;-82
2021/11/29 07:30:44;;;;;;;19.42;9.00;;;2.10;99.90;;;;;;5060059;28;20116;-82
2021/11/29 07:33:10;;;;;;;19.88;9.57;;;2.10;99.90;;;;;;5059565;28;20571;-82
2021/11/29 07:35:36;;;;;;;19.90;9.40;;;2.10;99.90;;;;;;5058097;28;20532;-82
2021/11/29 07:38:02;;;;;;;15.82;8.57;;;2.20;99.90;;;;;;5060878;28;20037;-79
2021/11/29 07:40:29;;;;;;;19.60;9.23;;;2.10;99.90;;;;;;5058932;28;20071;-81
2021/11/29 07:43:00;;;;;;;20.70;9.27;;;2.10;99.90;;;;;;5053395;28;20033;-82
2021/11/29 07:45:26;;;;;;;;;;;2.20;99.90;;;;;;5064718;28;20397;-83
2021/11/29 07:47:52;;;;;;;25.13;9.75;;;2.20;99.90;;;;;;5060811;28;19920;-81
2021/11/29 07:50:19;;;;;;;20.70;9.60;;;2.30;99.90;;;;;;5067374;28;20037;-81
2021/11/29 07:52:47;;;;;;;21.35;9.82;;;2.40;99.90;;;;;;5070005;28;20032;-82
2021/11/29 07:55:16;;;;;;;22.88;9.55;;;2.40;99.90;;;;;;5065275;28;20040;-84
2021/11/29 07:57:42;;;;;;;16.27;9.10;;;3.00;99.90;;;;;;5054957;28;20025;-82
2021/11/29 08:00:12;;;;;;;17.98;9.18;;;2.90;99.90;;;;;;5063061;28;20021;-82
2021/11/29 08:02:38;;;;;;;19.90;9.02;;;2.30;99.90;;;;;;5057965;28;20024;-83
2021/11/29 08:05:04;;;;;;;27.83;14.20;;;2.30;99.90;;;;;;5057658;28;20033;-90
2021/11/29 08:07:30;;;;;;;19.95;8.88;;;2.40;99.90;;;;;;5074484;28;20045;-85
2021/11/29 08:09:56;;;;;;;18.10;9.20;;;2.40;99.90;;;;;;5065437;28;20033;-86
2021/11/29 08:12:22;;;;;;;22.17;9.63;;;2.40;99.90;;;;;;5066797;28;20047;-86
2021/11/29 08:14:48;;;;;;;17.08;9.85;;;2.40;99.90;;;;;;5058506;28;20068;-81
2021/11/29 08:17:14;;;;;;;19.80;9.10;;;2.10;99.90;;;;;;5060824;28;20033;-80
2021/11/29 08:19:39;;;;;;;18.65;9.43;;;3.10;99.90;;;;;;5060505;28;20108;-83
2021/11/29 08:22:05;;;;;;;16.83;9.13;;;2.40;99.90;;;;;;5058835;28;20032;-83
2021/11/29 08:24:31;;;;;;;19.50;8.63;;;2.60;99.90;;;;;;5058315;28;20067;-85
2021/11/29 08:26:57;;;;;;;19.90;8.07;;;2.60;99.90;;;;;;5057795;28;20039;-82
2021/11/29 08:29:22;;;;;;;17.17;8.85;;;2.80;99.90;;;;;;5060227;28;20488;-82
2021/11/29 08:31:48;;;;;;;18.02;8.88;;;2.80;99.90;;;;;;5059522;28;20108;-81
2021/11/29 08:34:17;;;;;;;17.75;8.88;;;3.10;99.90;;;;;;5056167;28;20025;-81
2021/11/29 08:36:43;;;;;;;15.43;8.38;;;2.90;99.90;;;;;;5058967;28;20168;-83
2021/11/29 08:39:09;;;;;;;15.10;8.20;;;3.00;99.90;;;;;;5059435;28;20337;-81
2021/11/29 08:41:34;;;;;;;15.50;8.23;;;3.00;99.90;;;;;;5063281;28;20036;-82
2021/11/29 08:44:03;;;;;;;19.67;8.63;;;3.00;99.90;;;;;;5058496;28;20037;-84
2021/11/29 08:46:30;;;;;;;15.88;9.50;;;3.00;99.90;;;;;;5056388;28;20048;-82
2021/11/29 08:48:56;;;;;;;15.25;7.65;;;3.00;99.90;;;;;;5056731;28;20457;-83
2021/11/29 08:51:22;;;;;;;19.17;8.05;;;2.90;99.90;;;;;;5053911;28;20028;-81
2021/11/29 08:53:48;;;;;;;13.93;7.47;;;2.90;99.90;;;;;;5063458;28;20033;-86
2021/11/29 08:56:15;;;;;;;14.48;8.02;;;2.90;99.90;;;;;;5061770;28;20486;-84
2021/11/29 08:58:40;;;;;;;17.40;8.90;;;2.80;99.90;;;;;;5053345;28;20119;-82
2021/11/29 09:01:06;;;;;;;18.17;8.68;;;2.80;99.90;;;;;;5052727;28;20060;-81
2021/11/29 09:03:32;;;;;;;16.60;8.30;;;2.80;99.90;;;;;;5056423;28;20074;-83
2021/11/29 09:05:58;;;;;;;17.42;7.20;;;2.90;99.90;;;;;;5055613;28;20250;-82
2021/11/29 09:08:25;;;;;;;15.15;8.55;;;3.20;99.90;;;;;;5048088;28;20056;-83
2021/11/29 09:10:52;;;;;;;17.73;8.07;;;4.00;99.90;;;;;;5051881;28;20506;-81
2021/11/29 09:13:18;;;;;;;18.33;8.23;;;3.10;99.90;;;;;;5051599;28;20017;-82
2021/11/29 09:15:45;;;;;;;18.13;7.90;;;3.10;99.90;;;;;;5054492;28;20029;-80
2021/11/29 09:18:15;;;;;;;13.73;7.93;;;3.10;99.90;;;;;;5043032;28;20037;-83
2021/11/29 09:20:41;;;;;;;14.68;7.80;;;2.50;99.90;;;;;;5069480;28;20084;-82
2021/11/29 09:23:08;;;;;;;15.20;7.85;;;3.90;99.90;;;;;;5052896;28;20037;-81
2021/11/29 09:25:41;;;;;;;16.15;8.10;;;3.30;99.90;;;;;;5052413;28;20021;-81
2021/11/29 09:28:11;;;;;;;13.38;7.78;;;3.40;99.90;;;;;;5055729;28;20019;-82
2021/11/29 09:30:44;;;;;;;17.57;7.87;;;3.50;99.90;;;;;;5053013;28;20051;-79
2021/11/29 09:33:11;;;;;;;12.68;6.88;;;3.60;99.90;;;;;;5056713;28;20028;-81
2021/11/29 09:35:37;;;;;;;13.10;7.15;;;3.70;99.90;;;;;;5054562;28;20022;-82
2021/11/29 09:38:04;;;;;;;19.23;8.93;;;3.70;99.90;;;;;;5045119;28;20447;-81
2021/11/29 09:40:35;;;;;;;14.35;7.53;;;3.60;99.90;;;;;;5052396;28;20482;-81
2021/11/29 09:43:08;;;;;;;15.00;7.53;;;3.80;99.90;;;;;;5051929;28;20099;-80
2021/11/29 09:45:35;;;;;;;11.15;7.05;;;3.70;99.90;;;;;;5065245;28;20029;-80
2021/11/29 09:48:02;;;;;;;13.38;7.10;;;4.20;99.90;;;;;;5048529;28;20025;-83
2021/11/29 09:50:29;;;;;;;13.10;7.13;;;3.70;99.90;;;;;;5057380;28;20053;-82
2021/11/29 09:52:56;;;;;;;13.80;7.25;;;3.70;99.90;;;;;;5072318;28;20029;-82
2021/11/29 09:55:26;;;;;;;16.92;7.10;;;3.80;99.90;;;;;;5048906;28;20097;-83
2021/11/29 09:57:53;;;;;;;13.07;7.53;;;4.30;99.90;;;;;;5063214;28;20035;-86
2021/11/29 10:00:32;;;;;;;13.80;7.95;;;3.80;99.90;;;;;;5065067;28;20025;-80
2021/11/29 10:02:59;;;;;;;14.52;7.05;;;3.80;99.90;;;;;;5050301;28;20095;-82
2021/11/29 10:05:26;;;;;;;13.75;7.13;;;3.90;99.90;;;;;;5051380;28;20262;-80
2021/11/29 10:07:52;;;;;;;13.23;6.68;;;3.90;99.90;;;;;;5047948;28;20041;-83
2021/11/29 10:10:29;;;;;;;14.50;6.00;;;4.00;99.90;;;;;;5043999;28;20029;-82
2021/11/29 10:13:06;;;;;;;12.35;6.93;;;4.10;99.90;;;;;;5049065;28;20030;-83
2021/11/29 10:15:42;;;;;;;12.20;5.82;;;4.20;99.90;;;;;;5041931;28;20026;-80
2021/11/29 10:18:09;;;;;;;11.70;6.07;;;4.10;99.90;;;;;;5043389;28;20446;-84
2021/11/29 10:20:56;;;;;;;11.55;6.00;;;4.10;99.90;;;;;;5049705;28;20030;-85
2021/11/29 10:23:34;;;;;;;13.35;5.90;;;4.10;99.90;;;;;;5060973;28;20040;-82
2021/11/29 10:26:04;;;;;;;9.90;5.68;;;4.20;99.90;;;;;;5046024;28;20037;-82
2021/11/29 10:29:12;;;;;;;11.10;5.78;;;4.20;99.90;;;;;;5063395;28;20060;-83
2021/11/29 10:31:48;;;;;;;13.82;5.70;;;4.20;99.90;;;;;;5044372;22;20065;-83
2021/11/29 10:34:19;;;;;;;9.95;5.80;;;4.30;99.90;;;;;;5004834;28;20038;-83
2021/11/29 10:36:50;;;;;;;12.38;5.65;;;4.30;99.90;;;;;;5017594;28;20088;-83
2021/11/29 10:39:21;;;;;;;12.18;5.95;;;4.40;99.90;;;;;;5027188;28;20056;-82
2021/11/29 10:41:56;;;;;;;8.80;5.40;;;4.40;99.90;;;;;;5032734;28;20115;-80
2021/11/29 10:44:26;;;;;;;12.82;6.18;;;4.50;99.90;;;;;;5022036;28;20665;-81
2021/11/29 10:46:55;;;;;;;11.05;5.57;;;4.50;99.90;;;;;;5032180;28;20124;-85
2021/11/29 10:49:26;;;;;;;9.82;5.57;;;4.60;99.90;;;;;;5032893;28;20476;-85
2021/11/29 10:51:54;;;;;;;9.63;5.22;;;4.60;99.90;;;;;;5044650;28;20541;-81
2021/11/29 10:54:27;;;;;;;13.23;5.28;;;4.60;99.90;;;;;;5035017;28;20473;-79
2021/11/29 10:56:55;;;;;;;16.15;6.72;;;4.60;99.90;;;;;;5032390;28;20106;-79
2021/11/29 10:59:25;;;;;;;12.30;5.95;;;4.70;99.90;;;;;;5034140;28;20024;-82
2021/11/29 11:01:58;;;;;;;10.38;5.90;;;4.50;99.90;;;;;;5033479;28;20052;-79
2021/11/29 11:04:26;;;;;;;9.75;5.53;;;4.50;99.90;;;;;;5031834;28;20040;-81
2021/11/29 11:07:01;;;;;;;12.80;5.63;;;4.40;99.90;;;;;;5035363;28;20040;-84
2021/11/29 11:09:33;;;;;;;9.48;5.40;;;4.40;99.90;;;;;;5036271;28;20462;-82
2021/11/29 11:12:11;;;;;;;10.30;5.53;;;4.50;99.90;;;;;;5039495;28;20067;-82
2021/11/29 11:14:53;;;;;;;8.77;5.15;;;4.50;99.90;;;;;;5035326;28;20093;-81
2021/11/29 11:17:24;;;;;;;10.40;5.13;;;4.50;99.90;;;;;;5053520;28;20060;-80
2021/11/29 11:19:53;;;;;;;11.48;6.00;;;4.40;99.90;;;;;;5042542;28;20044;-81
2021/11/29 11:22:31;;;;;;;9.77;5.35;;;4.40;99.90;;;;;;5042012;28;20419;-82
2021/11/29 11:25:14;;;;;;;13.77;5.78;;;4.40;99.90;;;;;;5056939;28;20120;-81
2021/11/29 11:27:52;;;;;;;15.95;5.80;;;4.50;99.90;;;;;;5047193;28;20036;-79
2021/11/29 11:30:19;;;;;;;9.32;5.25;;;4.50;99.90;;;;;;5033744;28;20040;-82
2021/11/29 11:33:09;;;;;;;17.42;6.38;;;4.50;99.90;;;;;;5038707;28;20041;-81
2021/11/29 11:35:40;;;;;;;10.02;5.10;;;4.60;99.90;;;;;;5052811;28;20029;-82
2021/11/29 11:38:13;;;;;;;11.40;4.82;;;4.70;99.90;;;;;;5055053;28;20048;-83
2021/11/29 11:40:41;;;;;;;11.77;5.30;;;4.60;99.90;;;;;;5032339;28;20037;-79
2021/11/29 11:43:09;;;;;;;18.08;5.97;;;4.60;99.90;;;;;;5032622;28;20112;-81
2021/11/29 11:45:41;;;;;;;7.72;4.07;;;4.70;99.90;;;;;;5030308;28;20489;-83
2021/11/29 11:48:10;;;;;;;9.43;4.32;;;4.50;99.90;;;;;;5033312;28;20024;-80
2021/11/29 11:50:42;;;;;;;8.48;4.13;;;4.60;99.90;;;;;;5033594;28;20032;-81
2021/11/29 11:53:10;;;;;;;12.68;4.03;;;4.50;99.90;;;;;;5029423;28;20022;-81
2021/11/29 11:55:39;;;;;;;7.65;3.63;;;4.60;99.90;;;;;;5032515;28;20024;-80
2021/11/29 11:58:27;;;;;;;8.63;3.35;;;4.70;99.90;;;;;;5041452;28;20116;-79
2021/11/29 12:00:59;;;;;;;8.57;3.70;;;5.40;99.90;;;;;;5034240;28;20385;-79
2021/11/29 12:03:33;;;;;;;10.18;3.72;;;4.40;99.90;;;;;;5034949;28;20026;-82
2021/11/29 12:06:17;;;;;;;8.38;4.18;;;4.70;99.90;;;;;;5035400;28;20034;-82
2021/11/29 12:08:56;;;;;;;8.07;4.18;;;4.70;99.90;;;;;;5032103;28;20540;-83
2021/11/29 12:11:31;;;;;;;10.57;3.72;;;4.70;99.90;;;;;;5039806;28;20453;-79
2021/11/29 12:14:06;;;;;;;10.95;5.03;;;4.70;99.90;;;;;;5035081;28;20427;-80
2021/11/29 12:16:39;;;;;;;12.00;4.80;;;4.70;99.90;;;;;;5033826;28;20592;-87
2021/11/29 12:19:06;;;;;;;8.63;4.30;;;4.50;99.90;;;;;;5032624;28;20489;-81
2021/11/29 12:21:43;;;;;;;8.25;4.10;;;3.40;99.90;;;;;;5033808;28;20021;-80
2021/11/29 12:24:18;;;;;;;9.02;4.50;;;4.30;99.90;;;;;;5035563;28;20494;-79
2021/11/29 12:26:47;;;;;;;14.15;4.25;;;5.50;99.90;;;;;;5036044;28;20039;-82
2021/11/29 12:29:22;;;;;;;12.32;5.20;;;5.20;99.90;;;;;;5032783;28;20443;-82
2021/11/29 12:32:02;;;;;;;12.23;4.85;;;3.90;99.90;;;;;;5036444;28;20049;-81
2021/11/29 12:34:47;;;;;;;13.73;5.65;;;4.70;99.90;;;;;;5051998;28;20112;-82
2021/11/29 12:37:30;;;;;;;9.15;4.50;;;5.60;99.90;;;;;;5034435;28;20124;-80
2021/11/29 12:39:57;;;;;;;11.52;4.78;;;4.60;99.90;;;;;;5054662;28;20511;-81
2021/11/29 12:42:26;;;;;;;12.98;4.78;;;3.90;99.90;;;;;;5053760;28;20108;-83
2021/11/29 12:45:04;;;;;;;11.30;4.88;;;4.50;99.90;;;;;;5034900;28;20029;-80
2021/11/29 12:47:59;;;;;;;13.18;4.93;;;4.50;99.90;;;;;;5028220;28;20029;-80
2021/11/29 12:50:50;;;;;;;9.73;4.25;;;4.50;99.90;;;;;;5038320;28;20056;-82
2021/11/29 12:53:19;;;;;;;11.85;5.25;;;4.60;99.90;;;;;;5031879;28;20044;-84